createdAt,value
2022-08-25T00:00:15.058Z,5.28
2022-08-25T00:01:13.763Z,4.08
2022-08-25T00:02:18.823Z,3.12
2022-08-25T00:03:12.771Z,4.76
2022-08-25T00:04:12.747Z,5.24
2022-08-25T00:05:14.282Z,0.16
2022-08-25T00:06:14.612Z,1.52
2022-08-25T00:07:18.598Z,0.00
2022-08-25T00:08:15.279Z,0.00
2022-08-25T00:09:14.710Z,0.64
2022-08-25T00:10:13.636Z,3.20
2022-08-25T00:11:13.672Z,0.00
2022-08-25T00:12:15.143Z,0.00
2022-08-25T00:13:15.718Z,0.00
2022-08-25T00:14:15.286Z,0.00
2022-08-25T00:15:15.015Z,0.64
2022-08-25T00:16:13.192Z,1.08
2022-08-25T00:17:13.191Z,1.72
2022-08-25T00:18:19.957Z,0.88
2022-08-25T00:19:14.719Z,0.00
2022-08-25T00:20:13.675Z,0.96
2022-08-25T00:21:13.586Z,1.00
2022-08-25T00:22:14.461Z,0.00
2022-08-25T00:23:13.447Z,0.00
2022-08-25T00:24:13.262Z,0.00
2022-08-25T00:25:13.335Z,0.00
2022-08-25T00:26:17.092Z,0.00
2022-08-25T00:27:13.397Z,0.00
2022-08-25T00:28:13.814Z,0.00
2022-08-25T00:29:12.933Z,0.00
2022-08-25T00:30:12.892Z,0.00
2022-08-25T00:31:13.114Z,5.64
2022-08-25T00:32:14.602Z,8.80
2022-08-25T00:33:13.721Z,11.52
2022-08-25T00:34:13.685Z,12.72
2022-08-25T00:35:13.774Z,9.16
2022-08-25T00:36:15.740Z,7.32
2022-08-25T00:37:13.647Z,8.36
2022-08-25T00:38:14.019Z,8.68
2022-08-25T00:39:13.248Z,9.12
2022-08-25T00:40:13.253Z,8.56
2022-08-25T00:41:16.658Z,5.08
2022-08-25T00:42:16.311Z,6.64
2022-08-25T00:43:13.481Z,5.24
2022-08-25T00:44:13.476Z,2.44
2022-08-25T00:45:16.322Z,2.56
2022-08-25T00:46:14.869Z,4.88
2022-08-25T00:47:15.829Z,1.68
2022-08-25T00:48:15.407Z,0.00
2022-08-25T00:49:24.698Z,0.20
2022-08-25T00:50:13.529Z,0.00
2022-08-25T00:51:15.311Z,5.00
2022-08-25T00:52:13.603Z,1.28
2022-08-25T00:53:13.738Z,1.24
2022-08-25T00:54:20.770Z,5.64
2022-08-25T00:55:13.820Z,2.64
2022-08-25T00:56:13.776Z,0.00
2022-08-25T00:57:14.086Z,1.96
2022-08-25T00:58:16.407Z,5.68
2022-08-25T00:59:16.337Z,6.68
2022-08-25T01:00:13.447Z,3.81
2022-08-25T01:01:15.649Z,8.56
2022-08-25T01:02:14.146Z,7.20
2022-08-25T01:03:13.123Z,5.73
2022-08-25T01:04:13.295Z,4.00
2022-08-25T01:05:15.597Z,0.00
2022-08-25T01:06:15.156Z,1.60
2022-08-25T01:07:17.340Z,0.00
2022-08-25T01:08:13.433Z,0.00
2022-08-25T01:09:14.875Z,0.00
2022-08-25T01:10:13.772Z,0.00
2022-08-25T01:11:14.285Z,0.00
2022-08-25T01:12:13.422Z,0.00
2022-08-25T01:13:16.820Z,0.00
2022-08-25T01:14:13.625Z,0.00
2022-08-25T01:15:15.005Z,0.00
2022-08-25T01:16:13.028Z,0.00
2022-08-25T01:17:14.578Z,0.00
2022-08-25T01:18:14.406Z,0.00
2022-08-25T01:19:15.459Z,0.00
2022-08-25T01:20:13.783Z,0.00
2022-08-25T01:21:14.155Z,0.00
2022-08-25T01:22:12.944Z,0.60
2022-08-25T01:23:13.245Z,7.04
2022-08-25T01:24:13.234Z,8.56
2022-08-25T01:25:13.209Z,8.36
2022-08-25T01:26:13.285Z,9.72
2022-08-25T01:27:13.456Z,12.88
2022-08-25T01:28:13.835Z,5.84
2022-08-25T01:29:13.822Z,8.40
2022-08-25T01:30:15.080Z,3.48
2022-08-25T01:31:23.658Z,7.32
2022-08-25T01:32:13.869Z,1.92
2022-08-25T01:33:13.727Z,7.56
2022-08-25T01:34:15.145Z,7.40
2022-08-25T01:35:13.074Z,10.36
2022-08-25T01:36:13.397Z,13.32
2022-08-25T01:37:13.596Z,9.16
2022-08-25T01:38:18.642Z,9.12
2022-08-25T01:39:13.589Z,7.54
2022-08-25T01:40:15.102Z,6.92
2022-08-25T01:41:13.318Z,2.64
2022-08-25T01:42:13.565Z,4.76
2022-08-25T01:43:14.517Z,3.60
2022-08-25T01:44:16.503Z,0.00
2022-08-25T01:45:15.340Z,0.80
2022-08-25T01:46:13.570Z,2.48
2022-08-25T01:47:15.258Z,0.88
2022-08-25T01:48:13.387Z,1.60
2022-08-25T01:49:13.245Z,1.76
2022-08-25T01:50:13.454Z,3.68
2022-08-25T01:51:13.564Z,4.28
2022-08-25T01:52:13.756Z,2.00
2022-08-25T01:53:13.705Z,3.64
2022-08-25T01:54:13.945Z,1.32
2022-08-25T01:55:14.068Z,3.52
2022-08-25T01:56:13.851Z,2.28
2022-08-25T01:57:14.681Z,3.44
2022-08-25T01:58:14.789Z,3.68
2022-08-25T01:59:13.764Z,3.28
2022-08-25T02:00:13.564Z,4.88
2022-08-25T02:01:13.508Z,3.84
2022-08-25T02:02:13.738Z,4.52
2022-08-25T02:03:15.711Z,7.56
2022-08-25T02:04:13.737Z,0.68
2022-08-25T02:05:14.474Z,1.96
2022-08-25T02:06:13.438Z,2.12
2022-08-25T02:07:13.588Z,5.16
2022-08-25T02:08:13.754Z,1.08
2022-08-25T02:09:15.273Z,2.04
2022-08-25T02:10:14.869Z,4.00
2022-08-25T02:11:13.993Z,0.00
2022-08-25T02:12:16.016Z,0.64
2022-08-25T02:13:12.912Z,2.04
2022-08-25T02:14:13.582Z,4.32
2022-08-25T02:15:13.622Z,3.68
2022-08-25T02:16:14.526Z,4.40
2022-08-25T02:17:13.686Z,4.48
2022-08-25T02:18:14.038Z,1.24
2022-08-25T02:19:14.482Z,6.92
2022-08-25T02:20:13.389Z,5.44
2022-08-25T02:21:14.674Z,3.16
2022-08-25T02:22:13.970Z,3.32
2022-08-25T02:23:13.123Z,4.60
2022-08-25T02:24:14.771Z,3.40
2022-08-25T02:25:13.919Z,4.72
2022-08-25T02:26:12.835Z,9.80
2022-08-25T02:27:14.042Z,8.12
2022-08-25T02:28:13.017Z,1.24
2022-08-25T02:29:12.857Z,1.92
2022-08-25T02:30:13.938Z,4.04
2022-08-25T02:31:12.968Z,1.40
2022-08-25T02:32:12.992Z,0.00
2022-08-25T02:33:13.037Z,0.12
2022-08-25T02:34:13.017Z,1.52
2022-08-25T02:35:14.441Z,0.64
2022-08-25T02:36:13.316Z,0.00
2022-08-25T02:37:13.152Z,0.40
2022-08-25T02:38:13.147Z,0.00
2022-08-25T02:39:13.053Z,0.00
2022-08-25T02:40:13.076Z,0.00
2022-08-25T02:41:13.613Z,0.00
2022-08-25T02:42:13.641Z,0.00
2022-08-25T02:43:13.997Z,0.00
2022-08-25T02:44:14.511Z,0.00
2022-08-25T02:45:14.901Z,0.00
2022-08-25T02:46:13.019Z,0.00
2022-08-25T02:47:13.551Z,0.00
2022-08-25T02:48:13.803Z,0.00
2022-08-25T02:49:14.058Z,0.00
2022-08-25T02:50:13.177Z,0.00
2022-08-25T02:51:14.710Z,0.00
2022-08-25T02:52:13.632Z,0.00
2022-08-25T02:53:13.900Z,0.00
2022-08-25T02:54:15.237Z,0.00
2022-08-25T02:55:13.455Z,2.44
2022-08-25T02:56:13.279Z,3.64
2022-08-25T02:57:13.233Z,2.12
2022-08-25T02:58:13.157Z,3.48
2022-08-25T02:59:13.835Z,0.32
2022-08-25T03:00:15.266Z,0.32
2022-08-25T03:01:13.503Z,0.00
2022-08-25T03:02:15.025Z,0.00
2022-08-25T03:03:13.035Z,0.32
2022-08-25T03:04:13.030Z,0.32
2022-08-25T03:05:13.190Z,0.00
2022-08-25T03:06:13.602Z,1.41
2022-08-25T03:07:13.904Z,0.00
2022-08-25T03:08:13.352Z,0.00
2022-08-25T03:09:13.370Z,0.00
2022-08-25T03:10:15.001Z,0.00
2022-08-25T03:11:12.978Z,0.68
2022-08-25T03:12:12.953Z,1.48
2022-08-25T03:13:13.055Z,5.52
2022-08-25T03:14:13.220Z,5.28
2022-08-25T03:15:13.352Z,3.48
2022-08-25T03:16:13.713Z,4.00
2022-08-25T03:17:18.951Z,4.12
2022-08-25T03:18:14.035Z,3.36
2022-08-25T03:19:13.719Z,4.44
2022-08-25T03:20:13.786Z,4.20
2022-08-25T03:21:13.830Z,3.84
2022-08-25T03:22:12.986Z,0.60
2022-08-25T03:23:13.094Z,3.48
2022-08-25T03:24:13.108Z,1.36
2022-08-25T03:25:13.137Z,4.84
2022-08-25T03:26:15.100Z,5.04
2022-08-25T03:27:13.088Z,8.20
2022-08-25T03:28:13.135Z,6.32
2022-08-25T03:29:13.408Z,5.64
2022-08-25T03:30:16.316Z,4.84
2022-08-25T03:31:13.306Z,3.44
2022-08-25T03:32:13.432Z,5.36
2022-08-25T03:33:15.211Z,4.60
2022-08-25T03:34:13.178Z,4.36
2022-08-25T03:35:13.059Z,4.68
2022-08-25T03:36:12.937Z,7.28
2022-08-25T03:37:13.263Z,8.64
2022-08-25T03:38:13.178Z,5.28
2022-08-25T03:39:13.130Z,5.44
2022-08-25T03:40:15.271Z,2.76
2022-08-25T03:41:13.450Z,1.76
2022-08-25T03:42:13.546Z,9.36
2022-08-25T03:43:13.369Z,10.16
2022-08-25T03:44:13.404Z,6.68
2022-08-25T03:45:13.560Z,5.84
2022-08-25T03:46:15.021Z,8.16
2022-08-25T03:47:13.209Z,2.16
2022-08-25T03:48:13.117Z,8.56
2022-08-25T03:49:13.298Z,8.32
2022-08-25T03:50:13.154Z,2.48
2022-08-25T03:51:13.035Z,3.32
2022-08-25T03:52:12.972Z,6.52
2022-08-25T03:53:12.947Z,5.60
2022-08-25T03:54:12.945Z,5.20
2022-08-25T03:55:12.951Z,4.84
2022-08-25T03:56:13.133Z,4.32
2022-08-25T03:57:13.060Z,3.48
2022-08-25T03:58:13.284Z,2.00
2022-08-25T03:59:14.755Z,3.80
2022-08-25T04:00:13.651Z,3.44
2022-08-25T04:01:13.747Z,1.28
2022-08-25T04:02:13.545Z,0.00
2022-08-25T04:03:13.453Z,0.36
2022-08-25T04:04:14.824Z,2.36
2022-08-25T04:05:13.807Z,4.36
2022-08-25T04:06:17.877Z,2.04
2022-08-25T04:07:13.821Z,2.28
2022-08-25T04:08:18.965Z,3.04
2022-08-25T04:09:13.220Z,3.80
2022-08-25T04:10:13.059Z,1.96
2022-08-25T04:11:13.081Z,1.56
2022-08-25T04:12:14.387Z,2.32
2022-08-25T04:13:13.776Z,1.80
2022-08-25T04:14:16.570Z,1.24
2022-08-25T04:15:13.840Z,1.64
2022-08-25T04:16:14.122Z,1.68
2022-08-25T04:17:13.180Z,0.88
2022-08-25T04:18:13.287Z,0.96
2022-08-25T04:19:13.635Z,0.48
2022-08-25T04:20:14.084Z,0.64
2022-08-25T04:21:13.322Z,1.00
2022-08-25T04:22:14.803Z,0.04
2022-08-25T04:23:13.787Z,0.48
2022-08-25T04:24:13.746Z,1.40
2022-08-25T04:25:14.076Z,3.12
2022-08-25T04:26:13.300Z,1.48
2022-08-25T04:27:25.352Z,0.00
2022-08-25T04:28:13.464Z,0.00
2022-08-25T04:29:13.571Z,0.66
2022-08-25T04:30:13.483Z,0.34
2022-08-25T04:31:13.806Z,0.96
2022-08-25T04:32:15.412Z,8.04
2022-08-25T04:33:15.071Z,3.20
2022-08-25T04:34:28.893Z,4.96
2022-08-25T04:35:15.365Z,1.68
2022-08-25T04:36:20.458Z,1.44
2022-08-25T04:38:13.484Z,4.62
2022-08-25T04:39:13.355Z,10.32
2022-08-25T04:40:13.639Z,10.44
2022-08-25T04:41:22.712Z,10.80
2022-08-25T04:42:12.815Z,9.44
2022-08-25T04:43:31.970Z,0.96
2022-08-25T04:44:13.127Z,3.24
2022-08-25T04:45:13.094Z,3.12
2022-08-25T04:46:13.258Z,1.08
2022-08-25T04:47:13.432Z,3.48
2022-08-25T04:48:13.551Z,2.60
2022-08-25T04:49:13.648Z,3.44
2022-08-25T04:50:13.478Z,2.72
2022-08-25T04:51:13.438Z,4.52
2022-08-25T04:52:14.417Z,5.68
2022-08-25T04:53:13.624Z,5.20
2022-08-25T04:54:13.665Z,4.52
2022-08-25T04:55:13.684Z,3.48
2022-08-25T04:56:13.809Z,2.32
2022-08-25T04:57:13.921Z,3.00
2022-08-25T04:59:13.501Z,2.56
2022-08-25T05:01:13.580Z,0.72
2022-08-25T05:03:25.237Z,0.06
2022-08-25T05:04:14.688Z,0.00
2022-08-25T05:05:15.498Z,1.68
2022-08-25T05:06:16.012Z,0.34
2022-08-25T05:07:13.360Z,0.12
2022-08-25T05:08:15.109Z,0.00
2022-08-25T05:09:13.224Z,0.05
2022-08-25T05:10:23.436Z,0.00
2022-08-25T05:11:14.599Z,2.21
2022-08-25T05:12:13.680Z,0.40
2022-08-25T05:13:14.013Z,0.00
2022-08-25T05:14:14.500Z,1.44
2022-08-25T05:15:13.104Z,2.32
2022-08-25T05:16:13.225Z,2.04
2022-08-25T05:17:13.129Z,2.08
2022-08-25T05:18:14.731Z,3.56
2022-08-25T05:19:14.032Z,2.00
2022-08-25T05:20:18.011Z,2.80
2022-08-25T05:21:13.274Z,3.12
2022-08-25T05:22:23.248Z,3.48
2022-08-25T05:24:14.358Z,5.34
2022-08-25T05:25:13.272Z,6.72
2022-08-25T05:26:17.717Z,4.08
2022-08-25T05:27:13.672Z,3.68
2022-08-25T05:28:13.888Z,3.12
2022-08-25T05:29:19.188Z,1.76
2022-08-25T05:30:13.271Z,1.80
2022-08-25T05:31:13.362Z,2.56
2022-08-25T05:32:19.922Z,0.92
2022-08-25T05:33:13.316Z,0.84
2022-08-25T05:34:16.130Z,1.24
2022-08-25T05:35:13.029Z,1.36
2022-08-25T05:36:34.449Z,2.88
2022-08-25T05:37:13.421Z,2.40
2022-08-25T05:38:15.363Z,3.52
2022-08-25T05:39:29.629Z,3.56
2022-08-25T05:40:13.995Z,4.20
2022-08-25T05:41:13.261Z,4.92
2022-08-25T05:42:55.131Z,3.24
2022-08-25T05:43:15.224Z,5.28
2022-08-25T05:44:15.124Z,3.64
2022-08-25T05:45:15.862Z,2.44
2022-08-25T05:46:36.717Z,7.68
2022-08-25T05:47:14.541Z,6.72
2022-08-25T05:48:35.114Z,6.80
2022-08-25T05:49:14.243Z,6.60
2022-08-25T05:50:19.814Z,5.68
2022-08-25T05:51:23.789Z,1.88
2022-08-25T05:52:17.742Z,7.20
2022-08-25T05:53:13.080Z,4.36
2022-08-25T05:54:13.064Z,2.80
2022-08-25T05:55:12.931Z,4.12
2022-08-25T05:56:14.032Z,4.68
2022-08-25T05:57:12.828Z,4.36
2022-08-25T05:58:13.927Z,6.52
2022-08-25T05:59:18.566Z,6.80
2022-08-25T06:00:15.248Z,4.92
2022-08-25T06:01:29.607Z,3.76
2022-08-25T06:02:13.652Z,6.32
2022-08-25T06:03:13.808Z,5.88
2022-08-25T06:04:25.185Z,5.92
2022-08-25T06:05:23.250Z,0.72
2022-08-25T06:06:13.372Z,4.08
2022-08-25T06:07:13.324Z,8.32
2022-08-25T06:08:14.822Z,7.92
2022-08-25T06:09:13.872Z,7.24
2022-08-25T06:10:14.011Z,6.64
2022-08-25T06:11:18.017Z,7.68
2022-08-25T06:12:13.245Z,4.52
2022-08-25T06:13:13.257Z,8.16
2022-08-25T06:14:13.127Z,5.12
2022-08-25T06:15:13.007Z,3.88
2022-08-25T06:16:29.930Z,5.56
2022-08-25T06:17:24.251Z,7.34
2022-08-25T06:18:13.323Z,7.68
2022-08-25T06:19:13.291Z,7.68
2022-08-25T06:20:13.168Z,4.76
2022-08-25T06:21:13.306Z,5.84
2022-08-25T06:22:14.765Z,6.43
2022-08-25T06:23:13.645Z,4.42
2022-08-25T06:24:15.683Z,4.56
2022-08-25T06:25:13.010Z,5.36
2022-08-25T06:26:19.031Z,0.36
2022-08-25T06:27:19.006Z,5.52
2022-08-25T06:28:13.627Z,2.76
2022-08-25T06:29:13.633Z,1.44
2022-08-25T06:30:13.714Z,1.92
2022-08-25T06:31:13.208Z,0.00
2022-08-25T06:32:14.950Z,2.72
2022-08-25T06:33:19.919Z,8.24
2022-08-25T06:34:12.880Z,0.24
2022-08-25T06:35:19.157Z,0.48
2022-08-25T06:36:14.546Z,0.00
2022-08-25T06:37:15.147Z,1.08
2022-08-25T06:38:13.468Z,0.72
2022-08-25T06:39:13.637Z,0.00
2022-08-25T06:40:13.786Z,0.00
2022-08-25T06:41:13.860Z,0.00
2022-08-25T06:42:14.174Z,0.68
2022-08-25T06:43:29.686Z,4.44
2022-08-25T06:44:13.986Z,0.24
2022-08-25T06:45:12.905Z,0.28
2022-08-25T06:46:19.104Z,0.52
2022-08-25T06:47:13.193Z,1.24
2022-08-25T06:48:16.310Z,0.40
2022-08-25T06:49:16.088Z,0.48
2022-08-25T06:50:15.984Z,4.92
2022-08-25T06:51:14.262Z,2.72
2022-08-25T06:52:13.397Z,2.20
2022-08-25T06:53:21.009Z,2.88
2022-08-25T06:54:14.871Z,10.08
2022-08-25T06:55:15.312Z,10.08
2022-08-25T06:56:16.252Z,7.72
2022-08-25T06:57:14.716Z,7.92
2022-08-25T06:58:13.740Z,4.20
2022-08-25T06:59:13.758Z,7.92
2022-08-25T07:00:15.815Z,7.28
2022-08-25T07:01:19.822Z,1.04
2022-08-25T07:02:13.476Z,1.00
2022-08-25T07:03:14.256Z,2.68
2022-08-25T07:04:16.036Z,4.60
2022-08-25T07:05:26.929Z,9.32
2022-08-25T07:06:13.965Z,8.40
2022-08-25T07:07:14.426Z,5.80
2022-08-25T07:09:14.232Z,7.80
2022-08-25T07:10:13.174Z,9.36
2022-08-25T07:11:16.651Z,5.60
2022-08-25T07:12:14.884Z,5.72
2022-08-25T07:13:16.260Z,4.84
2022-08-25T07:14:13.333Z,7.72
2022-08-25T07:15:20.425Z,6.07
2022-08-25T07:16:15.763Z,1.52
2022-08-25T07:17:16.202Z,0.68
2022-08-25T07:18:12.926Z,2.68
2022-08-25T07:19:14.746Z,1.28
2022-08-25T07:20:13.979Z,4.88
2022-08-25T07:21:12.986Z,3.64
2022-08-25T07:22:13.108Z,5.48
2022-08-25T07:23:13.617Z,3.00
2022-08-25T07:24:13.542Z,3.20
2022-08-25T07:25:13.580Z,4.16
2022-08-25T07:26:21.542Z,2.24
2022-08-25T07:27:14.043Z,2.20
2022-08-25T07:28:14.084Z,3.28
2022-08-25T07:29:14.265Z,3.92
2022-08-25T07:30:13.138Z,7.32
2022-08-25T07:31:13.453Z,2.76
2022-08-25T07:32:15.202Z,2.28
2022-08-25T07:33:24.899Z,0.48
2022-08-25T07:34:16.287Z,2.40
2022-08-25T07:35:15.302Z,0.60
2022-08-25T07:36:17.919Z,2.72
2022-08-25T07:37:23.765Z,2.24
2022-08-25T07:38:20.680Z,3.84
2022-08-25T07:39:15.504Z,11.56
2022-08-25T07:40:17.094Z,8.28
2022-08-25T07:41:22.558Z,11.36
2022-08-25T07:42:16.783Z,11.04
2022-08-25T07:43:13.576Z,9.92
2022-08-25T07:44:13.592Z,5.08
2022-08-25T07:45:17.409Z,8.16
2022-08-25T07:46:15.791Z,7.48
2022-08-25T07:47:15.378Z,5.72
2022-08-25T07:48:23.544Z,11.92
2022-08-25T07:49:17.595Z,15.08
2022-08-25T07:50:13.245Z,19.36
2022-08-25T07:51:43.949Z,11.12
2022-08-25T07:52:15.341Z,6.96
2022-08-25T07:53:18.750Z,11.16
2022-08-25T07:54:15.365Z,12.04
2022-08-25T07:55:17.850Z,9.48
2022-08-25T07:56:18.071Z,3.76
2022-08-25T07:57:14.771Z,13.84
2022-08-25T07:58:15.374Z,1.64
2022-08-25T07:59:25.516Z,8.48
2022-08-25T08:00:29.981Z,5.28
2022-08-25T08:01:17.504Z,7.20
2022-08-25T08:02:27.937Z,10.92
2022-08-25T08:03:29.409Z,7.13
2022-08-25T08:04:15.458Z,11.60
2022-08-25T08:05:37.059Z,4.32
2022-08-25T08:06:27.131Z,6.90
2022-08-25T08:07:13.564Z,2.16
2022-08-25T08:08:30.023Z,0.36
2022-08-25T08:09:14.391Z,2.88
2022-08-25T08:10:42.449Z,5.20
2022-08-25T08:11:12.785Z,1.96
2022-08-25T08:12:15.269Z,2.00
2022-08-25T08:13:18.660Z,2.84
2022-08-25T08:14:17.620Z,3.56
2022-08-25T08:15:18.037Z,1.00
2022-08-25T08:16:17.737Z,1.36
2022-08-25T08:17:14.822Z,0.00
2022-08-25T08:18:16.057Z,10.92
2022-08-25T08:20:12.867Z,8.04
2022-08-25T08:21:19.278Z,8.56
2022-08-25T08:22:17.762Z,4.88
2022-08-25T08:23:16.712Z,4.32
2022-08-25T08:24:40.757Z,3.04
2022-08-25T08:25:18.885Z,5.12
2022-08-25T08:26:36.270Z,9.72
2022-08-25T08:27:16.056Z,3.92
2022-08-25T08:28:18.464Z,10.12
2022-08-25T08:29:16.498Z,4.56
2022-08-25T08:30:13.509Z,2.80
2022-08-25T08:31:16.387Z,9.60
2022-08-25T08:32:25.293Z,9.16
2022-08-25T08:33:15.243Z,9.04
2022-08-25T08:34:17.724Z,2.04
2022-08-25T08:35:25.024Z,1.39
2022-08-25T08:36:25.471Z,6.96
2022-08-25T08:37:21.975Z,6.76
2022-08-25T08:38:19.610Z,4.48
2022-08-25T08:39:13.339Z,4.08
2022-08-25T08:40:17.349Z,3.64
2022-08-25T08:41:23.332Z,4.16
2022-08-25T08:42:41.976Z,0.00
2022-08-25T08:43:17.880Z,9.00
2022-08-25T08:44:24.572Z,9.68
2022-08-25T08:45:22.056Z,1.80
2022-08-25T08:46:17.769Z,3.08
2022-08-25T08:47:13.573Z,6.24
2022-08-25T08:48:28.132Z,6.40
2022-08-25T08:49:16.187Z,4.56
2022-08-25T08:50:24.866Z,0.24
2022-08-25T08:51:15.580Z,0.68
2022-08-25T08:52:14.381Z,0.24
2022-08-25T08:53:16.211Z,7.96
2022-08-25T08:54:16.663Z,9.12
2022-08-25T08:55:16.310Z,10.16
2022-08-25T08:56:15.919Z,3.76
2022-08-25T08:57:26.757Z,9.12
2022-08-25T08:58:15.480Z,6.24
2022-08-25T08:59:44.423Z,4.88
2022-08-25T09:00:19.513Z,0.24
2022-08-25T09:01:16.952Z,4.24
2022-08-25T09:02:38.607Z,0.36
2022-08-25T09:03:15.099Z,0.48
2022-08-25T09:04:33.891Z,1.26
2022-08-25T09:05:25.370Z,13.80
2022-08-25T09:06:23.804Z,11.42
2022-08-25T09:07:27.361Z,0.90
2022-08-25T09:09:16.869Z,3.26
2022-08-25T09:10:17.068Z,3.48
2022-08-25T09:11:16.650Z,4.64
2022-08-25T09:12:18.124Z,12.52
2022-08-25T09:13:15.767Z,15.84
2022-08-25T09:14:33.788Z,3.32
2022-08-25T09:15:18.399Z,9.32
2022-08-25T09:16:20.508Z,5.52
2022-08-25T09:17:14.796Z,9.40
2022-08-25T09:18:23.939Z,9.60
2022-08-25T09:19:21.306Z,7.40
2022-08-25T09:20:18.311Z,4.56
2022-08-25T09:21:17.890Z,7.20
2022-08-25T09:22:33.399Z,12.88
2022-08-25T09:23:35.938Z,11.04
2022-08-25T09:25:52.400Z,7.49
2022-08-25T09:26:17.869Z,4.20
2022-08-25T09:27:22.013Z,0.76
2022-08-25T09:28:32.421Z,3.54
2022-08-25T09:29:21.478Z,7.80
2022-08-25T09:30:38.235Z,9.00
2022-08-25T09:31:18.320Z,7.80
2022-08-25T09:32:31.325Z,24.86
2022-08-25T09:34:18.389Z,10.32
2022-08-25T09:35:32.760Z,10.98
2022-08-25T09:36:33.224Z,27.84
2022-08-25T09:37:15.475Z,22.72
2022-08-25T09:38:33.428Z,21.60
2022-08-25T09:39:23.991Z,2.34
2022-08-25T09:40:27.953Z,3.84
2022-08-25T09:42:41.012Z,12.48
2022-08-25T09:43:18.072Z,8.64
2022-08-25T09:45:34.104Z,4.32
2022-08-25T09:46:27.724Z,23.28
2022-08-25T09:47:30.354Z,11.28
2022-08-25T09:49:17.917Z,21.60
2022-08-25T09:51:24.967Z,10.08
2022-08-25T09:52:16.363Z,15.36
2022-08-25T09:53:18.726Z,13.40
2022-08-25T09:54:44.031Z,5.44
2022-08-25T09:55:24.853Z,20.40
2022-08-25T09:56:34.285Z,2.04
2022-08-25T09:57:17.305Z,10.16
2022-08-25T09:58:17.728Z,8.80
2022-08-25T09:59:34.168Z,24.00
2022-08-25T10:00:31.205Z,20.56
2022-08-25T10:01:18.129Z,7.32
2022-08-25T10:02:28.856Z,2.83
2022-08-25T10:03:18.147Z,2.40
2022-08-25T10:04:25.341Z,0.84
2022-08-25T10:05:30.010Z,20.46
2022-08-25T10:07:33.451Z,5.09
2022-08-25T10:08:18.997Z,23.88
2022-08-25T10:09:26.717Z,18.48
2022-08-25T10:11:22.905Z,24.36
2022-08-25T10:12:18.613Z,19.60
2022-08-25T10:13:23.472Z,19.12
2022-08-25T10:14:26.251Z,6.82
2022-08-25T10:15:29.422Z,14.52
2022-08-25T10:16:32.134Z,10.68
2022-08-25T10:17:21.146Z,6.72
2022-08-25T10:18:17.435Z,10.08
2022-08-25T10:19:45.580Z,12.84
2022-08-25T10:21:16.277Z,3.60
2022-08-25T10:24:20.105Z,5.14
2022-08-25T10:25:34.453Z,2.93
2022-08-25T10:26:17.281Z,12.48
2022-08-25T10:27:17.589Z,14.16
2022-08-25T10:28:25.667Z,15.88
2022-08-25T10:30:17.835Z,11.28
2022-08-25T10:31:23.145Z,4.84
2022-08-25T10:32:18.458Z,9.02
2022-08-25T10:33:30.730Z,10.98
2022-08-25T10:36:17.191Z,10.56
2022-08-25T10:37:33.362Z,1.44
2022-08-25T10:38:37.285Z,3.04
2022-08-25T10:39:34.539Z,8.52
2022-08-25T10:40:47.905Z,41.52
2022-08-25T10:41:18.145Z,23.28
2022-08-25T10:42:20.166Z,6.12
2022-08-25T10:43:17.096Z,5.88
2022-08-25T10:44:17.002Z,13.00
2022-08-25T10:45:25.120Z,12.64
2022-08-25T10:46:21.293Z,18.19
2022-08-25T10:47:14.413Z,8.24
2022-08-25T10:50:27.470Z,31.28
2022-08-25T10:51:19.657Z,22.48
2022-08-25T10:52:15.920Z,24.76
2022-08-25T10:53:15.114Z,19.04
2022-08-25T10:54:16.305Z,11.60
2022-08-25T10:55:32.584Z,9.24
2022-08-25T10:56:28.883Z,7.80
2022-08-25T10:57:17.752Z,13.88
2022-08-25T10:58:15.670Z,14.08
2022-08-25T10:59:15.745Z,8.32
2022-08-25T11:00:17.523Z,8.80
2022-08-25T11:01:31.624Z,11.04
2022-08-25T11:02:17.075Z,6.96
2022-08-25T11:03:29.161Z,2.88
2022-08-25T11:04:25.346Z,8.88
2022-08-25T11:05:24.517Z,16.68
2022-08-25T11:06:17.501Z,16.60
2022-08-25T11:07:15.178Z,19.00
2022-08-25T11:08:19.584Z,17.96
2022-08-25T11:09:17.320Z,6.40
2022-08-25T11:10:26.521Z,5.48
2022-08-25T11:13:20.261Z,6.20
2022-08-25T11:14:18.607Z,16.83
2022-08-25T11:15:18.698Z,17.76
2022-08-25T11:16:19.551Z,7.65
2022-08-25T11:17:17.576Z,20.00
2022-08-25T11:18:19.716Z,27.32
2022-08-25T11:19:19.170Z,20.52
2022-08-25T11:20:26.616Z,10.32
2022-08-25T11:21:17.914Z,9.40
2022-08-25T11:22:19.381Z,1.56
2022-08-25T11:23:19.735Z,0.12
2022-08-25T11:24:20.457Z,5.96
2022-08-25T11:25:19.658Z,2.80
2022-08-25T11:26:28.902Z,7.20
2022-08-25T11:27:18.111Z,6.00
2022-08-25T11:28:17.965Z,9.96
2022-08-25T11:29:28.906Z,21.31
2022-08-25T11:30:21.079Z,3.84
2022-08-25T11:31:26.175Z,9.76
2022-08-25T11:32:19.293Z,12.24
2022-08-25T11:33:20.713Z,17.92
2022-08-25T11:34:19.550Z,9.55
2022-08-25T11:35:27.562Z,14.81
2022-08-25T11:36:20.853Z,18.48
2022-08-25T11:37:19.750Z,13.24
2022-08-25T11:38:20.777Z,10.96
2022-08-25T11:39:20.662Z,11.24
2022-08-25T11:40:26.150Z,5.40
2022-08-25T11:41:20.355Z,9.20
2022-08-25T11:42:18.507Z,6.32
2022-08-25T11:43:19.587Z,25.80
2022-08-25T11:44:19.682Z,3.64
2022-08-25T11:45:19.909Z,21.40
2022-08-25T11:46:20.550Z,13.68
2022-08-25T11:47:21.758Z,10.24
2022-08-25T11:48:19.644Z,11.84
2022-08-25T11:49:18.892Z,4.16
2022-08-25T11:50:29.942Z,4.77
2022-08-25T11:51:25.648Z,1.36
2022-08-25T11:52:30.727Z,7.15
2022-08-25T11:53:19.569Z,4.08
2022-08-25T11:54:18.111Z,2.68
2022-08-25T11:55:22.797Z,7.68
2022-08-25T11:56:21.308Z,4.84
2022-08-25T11:57:29.962Z,4.24
2022-08-25T11:58:18.364Z,7.16
2022-08-25T11:59:26.913Z,5.57
2022-08-25T12:00:20.584Z,0.24
2022-08-25T12:01:19.331Z,14.60
2022-08-25T12:02:17.600Z,19.76
2022-08-25T12:03:16.514Z,21.72
2022-08-25T12:04:18.630Z,30.12
2022-08-25T12:05:21.280Z,19.20
2022-08-25T12:06:19.010Z,19.88
2022-08-25T12:07:19.209Z,9.92
2022-08-25T12:08:16.862Z,8.00
2022-08-25T12:09:18.450Z,23.08
2022-08-25T12:10:18.322Z,34.12
2022-08-25T12:11:20.974Z,26.84
2022-08-25T12:12:22.373Z,12.88
2022-08-25T12:13:19.109Z,19.96
2022-08-25T12:14:33.281Z,19.20
2022-08-25T12:16:18.755Z,26.50
2022-08-25T12:17:19.417Z,17.64
2022-08-25T12:18:20.440Z,12.24
2022-08-25T12:19:18.943Z,7.44
2022-08-25T12:20:18.831Z,15.16
2022-08-25T12:21:19.262Z,6.24
2022-08-25T12:22:18.069Z,5.92
2022-08-25T12:23:18.104Z,14.64
2022-08-25T12:24:18.569Z,22.76
2022-08-25T12:26:19.071Z,27.36
2022-08-25T12:27:16.899Z,28.00
2022-08-25T12:28:17.406Z,30.72
2022-08-25T12:29:19.461Z,27.28
2022-08-25T12:30:21.003Z,24.16
2022-08-25T12:31:27.084Z,15.04
2022-08-25T12:32:18.785Z,23.04
2022-08-25T12:33:19.005Z,11.60
2022-08-25T12:34:19.222Z,10.00
2022-08-25T12:35:21.097Z,8.28
2022-08-25T12:36:19.192Z,6.52
2022-08-25T12:37:19.831Z,1.00
2022-08-25T12:38:28.395Z,8.35
2022-08-25T12:39:17.747Z,21.84
2022-08-25T12:40:17.430Z,17.92
2022-08-25T12:41:19.792Z,13.88
2022-08-25T12:42:19.034Z,15.12
2022-08-25T12:43:13.061Z,13.96
2022-08-25T12:44:13.072Z,8.96
2022-08-25T12:45:12.974Z,4.32
2022-08-25T12:46:13.346Z,5.76
2022-08-25T12:48:16.880Z,16.56
2022-08-25T12:49:13.346Z,20.13
2022-08-25T12:50:13.682Z,19.44
2022-08-25T12:51:13.890Z,8.88
2022-08-25T12:52:12.821Z,15.48
2022-08-25T12:53:13.824Z,27.96
2022-08-25T12:54:15.925Z,11.04
2022-08-25T12:55:13.295Z,21.76
2022-08-25T12:56:13.542Z,14.08
2022-08-25T12:57:13.417Z,19.08
2022-08-25T12:58:13.619Z,31.60
2022-08-25T12:59:13.931Z,37.84
2022-08-25T13:00:12.913Z,22.48
2022-08-25T13:01:23.082Z,10.80
2022-08-25T13:02:13.766Z,28.12
2022-08-25T13:03:14.137Z,27.00
2022-08-25T13:04:13.660Z,30.52
2022-08-25T13:05:14.721Z,16.20
2022-08-25T13:06:14.294Z,16.04
2022-08-25T13:07:13.363Z,12.92
2022-08-25T13:08:15.209Z,4.04
2022-08-25T13:09:14.438Z,11.20
2022-08-25T13:11:13.468Z,7.20
2022-08-25T13:12:13.333Z,6.68
2022-08-25T13:13:18.931Z,9.00
2022-08-25T13:14:13.279Z,5.96
2022-08-25T13:15:13.087Z,2.52
2022-08-25T13:16:14.498Z,5.12
2022-08-25T13:17:12.959Z,3.04
2022-08-25T13:18:12.968Z,1.32
2022-08-25T13:19:13.581Z,11.36
2022-08-25T13:20:13.222Z,1.76
2022-08-25T13:21:13.611Z,0.00
2022-08-25T13:22:16.519Z,10.44
2022-08-25T13:23:13.987Z,24.52
2022-08-25T13:24:12.953Z,20.32
2022-08-25T13:25:13.061Z,22.56
2022-08-25T13:26:15.089Z,12.24
2022-08-25T13:27:13.182Z,0.12
2022-08-25T13:28:14.935Z,9.44
2022-08-25T13:29:12.960Z,12.89
2022-08-25T13:30:14.055Z,13.64
2022-08-25T13:31:13.166Z,9.84
2022-08-25T13:32:14.499Z,12.68
2022-08-25T13:33:13.756Z,14.32
2022-08-25T13:34:12.876Z,5.84
2022-08-25T13:35:14.056Z,17.92
2022-08-25T13:36:18.250Z,23.60
2022-08-25T13:37:13.467Z,26.80
2022-08-25T13:38:13.797Z,17.56
2022-08-25T13:39:14.376Z,2.88
2022-08-25T13:40:13.110Z,7.88
2022-08-25T13:41:12.892Z,16.52
2022-08-25T13:42:12.849Z,39.32